Portada
METAR-TAF:

METAR-TAF

Aeroports :

Aeroport Internacional Elefthérios Venizelos

Atenes, Grècia

latitud: 37-56N, longitud: 023-56E, altitud: 94 m

Observació

L'informe es va fer fa 27 minuts, a les 17:20 UTC
Vent 10 kt del Nord
Temperatura 29°C
Humitat 40%
Pressió 1013 hPa
Visibilitat 10 km o més
sense núvols per sota de 1500 mi sense presència de cumulonimbus.

METAR: LGAV 251720Z 01010KT CAVOK 29/14 Q1013 NOSIG

Hora: 20:47 (17:47 UTC)

Pronòstic

L'informe es va fer fa 47 minuts, a les 17:00 UTC
Pronòstic vàlid del 25 a les 18 UTC al 26 a les 18 UTC
Vent 16 kt del Nord/Nord-Est
Visibilitat 10 km o més
Escasses núvols a una alçada de 2500 ft
Temporalment
l' 26 a les 06 UTC al 26 a les 15 UTC
Vent 20 kt del Nord/Nord-Est amb ràfegues de 30 kt

TAF: LGAV 251700Z 2518/2618 02016KT 9999 FEW025 TEMPO 2606/2615 02020G30KT

Observacions i pronòstics meteorològics de més de 4000 aeroports (METAR i TAF).

Les estacions disponibles són els punts grocs i vermells al mapa.

Posi el ratolí al punt desitjat per veure el nom de l'estació.

Feu clic per veure les observacions i els pronòstics meteorològics.

Per canviar el mapa: feu clic els botons verds amb una creu de color negre per apropar; al botó verd amb un guió per allunyar la imatge; o en les fletxes verdes per a mapes adjacents.


METAR-TAF: